createdAt,value
2022-09-05T00:05:09.796Z,100.00
2022-09-05T00:10:51.944Z,100.00
2022-09-05T00:16:36.415Z,100.00
2022-09-05T00:24:35.901Z,100.00
2022-09-05T00:28:00.171Z,100.00
2022-09-05T00:33:31.899Z,100.00
2022-09-05T00:38:59.796Z,100.00
2022-09-05T00:44:25.935Z,100.00
2022-09-05T00:49:53.616Z,100.00
2022-09-05T00:55:23.084Z,100.00
2022-09-05T01:00:52.824Z,100.00
2022-09-05T01:06:30.908Z,100.00
2022-09-05T01:12:11.516Z,100.00
2022-09-05T01:17:44.708Z,100.00
2022-09-05T01:23:29.747Z,100.00
2022-09-05T01:29:16.373Z,100.00
2022-09-05T01:34:55.731Z,100.00
2022-09-05T01:40:25.217Z,100.00
2022-09-05T01:45:52.406Z,100.00
2022-09-05T01:51:29.137Z,100.00
2022-09-05T01:57:04.713Z,100.00
2022-09-05T02:02:50.706Z,100.00
2022-09-05T02:08:35.705Z,100.00
2022-09-05T02:14:01.543Z,100.00
2022-09-05T02:19:29.817Z,100.00
2022-09-05T02:24:58.486Z,100.00
2022-09-05T02:30:58.978Z,100.00
2022-09-05T02:36:36.014Z,100.00
2022-09-05T02:45:14.817Z,100.00
2022-09-05T02:47:50.445Z,100.00
2022-09-05T02:57:25.548Z,100.00
2022-09-05T02:59:10.516Z,100.00
2022-09-05T03:04:39.149Z,100.00
2022-09-05T03:10:17.876Z,100.00
2022-09-05T03:16:16.115Z,100.00
2022-09-05T03:22:24.174Z,100.00
2022-09-05T03:28:24.067Z,100.00
2022-09-05T03:34:14.335Z,100.00
2022-09-05T03:39:54.256Z,100.00
2022-09-05T03:45:37.359Z,100.00
2022-09-05T03:57:13.844Z,100.00
2022-09-05T03:57:33.833Z,100.00
2022-09-05T04:07:48.166Z,100.00
2022-09-05T04:08:58.285Z,100.00
2022-09-05T04:14:27.489Z,100.00
2022-09-05T04:19:55.274Z,100.00
2022-09-05T04:25:25.305Z,100.00
2022-09-05T04:30:50.388Z,100.00
2022-09-05T04:36:20.750Z,100.00
2022-09-05T04:41:47.183Z,100.00
2022-09-05T04:47:13.108Z,100.00
2022-09-05T04:52:55.815Z,100.00
2022-09-05T04:58:36.408Z,100.00
2022-09-05T05:06:16.279Z,100.00
2022-09-05T05:10:25.586Z,100.00
2022-09-05T05:18:14.992Z,100.00
2022-09-05T05:21:32.808Z,100.00
2022-09-05T05:27:02.803Z,100.00
2022-09-05T05:32:46.156Z,100.00
2022-09-05T05:38:24.679Z,100.00
2022-09-05T05:43:50.252Z,100.00
2022-09-05T05:49:37.734Z,100.00
2022-09-05T05:55:14.070Z,100.00
2022-09-05T06:01:27.388Z,100.00
2022-09-05T06:07:04.674Z,100.00
2022-09-05T06:15:01.922Z,100.00
2022-09-05T06:19:15.181Z,100.00
2022-09-05T06:25:20.431Z,100.00
2022-09-05T06:30:48.635Z,100.00
2022-09-05T06:36:44.359Z,100.00
2022-09-05T06:42:33.370Z,100.00
2022-09-05T06:48:06.206Z,100.00
2022-09-05T06:53:43.581Z,100.00
2022-09-05T06:59:43.866Z,100.00
2022-09-05T07:05:37.031Z,100.00
2022-09-05T07:11:11.450Z,100.00
2022-09-05T07:16:43.837Z,100.00
2022-09-05T07:22:47.925Z,100.00
2022-09-05T07:28:28.582Z,100.00
2022-09-05T07:34:21.505Z,100.00
2022-09-05T07:39:49.787Z,100.00
2022-09-05T07:45:18.435Z,100.00
2022-09-05T07:56:36.302Z,100.00
2022-09-05T07:57:08.834Z,100.00
2022-09-05T08:02:29.364Z,100.00
2022-09-05T08:07:55.835Z,100.00
2022-09-05T08:13:33.919Z,100.00
2022-09-05T08:19:06.316Z,100.00
2022-09-05T08:24:33.648Z,100.00
2022-09-05T08:30:25.636Z,100.00
2022-09-05T08:35:53.289Z,100.00
2022-09-05T08:41:44.704Z,100.00
2022-09-05T08:47:19.499Z,97.90
2022-09-05T08:52:53.727Z,97.05
2022-09-05T08:58:34.280Z,90.25
2022-09-05T09:04:14.115Z,84.92
2022-09-05T09:09:45.365Z,83.72
2022-09-05T09:15:15.002Z,81.57
2022-09-05T09:20:49.194Z,83.68
2022-09-05T09:26:17.072Z,80.19
2022-09-05T09:31:46.908Z,73.24
2022-09-05T09:37:50.701Z,65.16
2022-09-05T09:43:23.223Z,70.07
2022-09-05T09:49:02.939Z,62.04
2022-09-05T09:54:45.090Z,61.74
2022-09-05T10:00:17.574Z,61.30
2022-09-05T10:10:36.002Z,57.09
2022-09-05T10:12:02.208Z,55.58
2022-09-05T10:17:54.659Z,55.67
2022-09-05T10:23:50.935Z,55.33
2022-09-05T10:29:37.849Z,56.26
2022-09-05T10:35:22.136Z,55.09
2022-09-05T10:41:11.239Z,54.27
2022-09-05T10:46:57.053Z,53.65
2022-09-05T10:52:26.214Z,53.63
2022-09-05T10:58:01.903Z,52.97
2022-09-05T11:03:30.658Z,48.81
2022-09-05T11:09:14.378Z,48.84
2022-09-05T11:14:49.374Z,48.47
2022-09-05T11:20:35.547Z,49.70
2022-09-05T11:26:06.085Z,49.59
2022-09-05T11:32:40.062Z,48.70
2022-09-05T11:39:52.066Z,49.12
2022-09-05T11:44:25.222Z,49.18
2022-09-05T11:50:11.539Z,48.00
2022-09-05T11:55:46.347Z,50.07
2022-09-05T12:01:36.816Z,48.64
2022-09-05T12:07:30.147Z,48.27
2022-09-05T12:13:08.350Z,47.11
2022-09-05T12:18:42.010Z,49.43
2022-09-05T12:25:18.015Z,48.92
2022-09-05T12:29:59.987Z,47.95
2022-09-05T12:36:08.278Z,46.68
2022-09-05T12:41:43.500Z,48.26
2022-09-05T12:47:16.733Z,47.36
2022-09-05T12:52:46.854Z,47.51
2022-09-05T13:01:27.114Z,48.73
2022-09-05T13:04:18.116Z,49.28
2022-09-05T13:10:44.596Z,49.59
2022-09-05T13:15:36.203Z,48.27
2022-09-05T13:21:07.691Z,49.45
2022-09-05T13:26:38.941Z,47.33
2022-09-05T13:38:00.573Z,45.50
2022-09-05T13:43:45.805Z,44.88
2022-09-05T13:49:32.059Z,44.13
2022-09-05T13:55:04.719Z,44.68
2022-09-05T14:01:06.382Z,45.34
2022-09-05T14:06:48.779Z,45.86
2022-09-05T14:12:19.562Z,45.01
2022-09-05T14:18:20.147Z,44.19
2022-09-05T14:23:53.349Z,44.07
2022-09-05T14:29:19.872Z,44.91
2022-09-05T14:37:48.806Z,45.09
2022-09-05T14:41:15.202Z,45.57
2022-09-05T14:47:00.013Z,46.01
2022-09-05T14:52:28.513Z,46.75
2022-09-05T15:02:28.462Z,47.43
2022-09-05T15:12:14.752Z,46.66
2022-09-05T15:15:16.100Z,47.94
2022-09-05T15:20:41.785Z,49.23
2022-09-05T15:26:08.045Z,48.33
2022-09-05T15:31:31.342Z,58.47
2022-09-05T15:36:55.581Z,63.46
2022-09-05T15:42:35.254Z,65.26
2022-09-05T15:48:26.156Z,69.34
2022-09-05T15:53:52.400Z,72.12
2022-09-05T15:59:17.258Z,68.86
2022-09-05T16:08:19.686Z,69.95
2022-09-05T16:10:56.088Z,71.28
2022-09-05T16:23:18.191Z,74.95
2022-09-05T16:23:23.413Z,70.99
2022-09-05T16:27:51.503Z,75.52
2022-09-05T16:33:18.247Z,82.01
2022-09-05T16:38:48.846Z,79.54
2022-09-05T16:44:16.208Z,78.08
2022-09-05T16:49:44.979Z,77.89
2022-09-05T16:55:17.338Z,81.00
2022-09-05T17:00:53.972Z,79.37
2022-09-05T17:06:25.497Z,80.61
2022-09-05T17:12:00.627Z,80.64
2022-09-05T17:18:18.610Z,80.02
2022-09-05T17:29:19.904Z,78.92
2022-09-05T17:29:28.938Z,77.29
2022-09-05T17:35:17.764Z,77.00
2022-09-05T17:41:02.504Z,78.11
2022-09-05T17:46:28.783Z,78.82
2022-09-05T17:52:25.956Z,80.77
2022-09-05T17:57:50.829Z,80.43
2022-09-05T18:04:15.805Z,83.99
2022-09-05T18:09:58.798Z,84.27
2022-09-05T18:16:12.565Z,87.67
2022-09-05T18:21:48.200Z,92.75
2022-09-05T18:28:03.933Z,97.38
2022-09-05T18:33:55.542Z,100.00
2022-09-05T18:39:41.910Z,100.00
2022-09-05T18:45:14.521Z,100.00
2022-09-05T18:50:46.918Z,100.00
2022-09-05T18:56:20.172Z,100.00
2022-09-05T19:01:53.008Z,100.00
2022-09-05T19:07:22.378Z,100.00
2022-09-05T19:12:53.758Z,100.00
2022-09-05T19:18:37.075Z,100.00
2022-09-05T19:24:05.824Z,100.00
2022-09-05T19:35:29.380Z,100.00
2022-09-05T19:36:58.282Z,100.00
2022-09-05T19:47:29.783Z,100.00
2022-09-05T19:47:47.592Z,100.00
2022-09-05T19:52:33.059Z,100.00
2022-09-05T19:58:19.278Z,100.00
2022-09-05T20:03:44.972Z,100.00
2022-09-05T20:09:10.578Z,100.00
2022-09-05T20:14:36.812Z,100.00
2022-09-05T20:20:09.777Z,100.00
2022-09-05T20:25:39.672Z,100.00
2022-09-05T20:31:08.260Z,100.00
2022-09-05T20:41:53.849Z,100.00
2022-09-05T20:43:29.306Z,100.00
2022-09-05T20:54:04.266Z,100.00
2022-09-05T20:54:21.138Z,100.00
2022-09-05T20:59:38.448Z,100.00
2022-09-05T21:05:06.801Z,100.00
2022-09-05T21:10:56.004Z,100.00
2022-09-05T21:16:21.714Z,100.00
2022-09-05T21:21:46.368Z,100.00
2022-09-05T21:27:17.843Z,100.00
2022-09-05T21:32:41.950Z,100.00
2022-09-05T21:38:06.854Z,100.00
2022-09-05T21:47:39.415Z,100.00
2022-09-05T21:49:14.857Z,100.00
2022-09-05T21:59:18.343Z,100.00
2022-09-05T22:00:25.490Z,100.00
2022-09-05T22:05:49.483Z,100.00
2022-09-05T22:11:14.980Z,100.00
2022-09-05T22:16:44.734Z,100.00
2022-09-05T22:22:16.200Z,100.00
2022-09-05T22:27:44.875Z,100.00
2022-09-05T22:33:08.863Z,100.00
2022-09-05T22:38:33.278Z,100.00
2022-09-05T22:43:57.902Z,100.00
2022-09-05T22:49:21.154Z,100.00
2022-09-05T22:54:44.612Z,100.00
2022-09-05T23:00:11.390Z,100.00
2022-09-05T23:05:35.062Z,100.00
2022-09-05T23:10:58.465Z,100.00
2022-09-05T23:16:23.101Z,100.00
2022-09-05T23:21:46.467Z,100.00
2022-09-05T23:27:09.740Z,100.00
2022-09-05T23:32:34.527Z,100.00
2022-09-05T23:37:57.867Z,100.00
2022-09-05T23:43:21.099Z,100.00
2022-09-05T23:48:45.787Z,100.00
2022-09-05T23:54:08.916Z,100.00
2022-09-05T23:59:32.090Z,100.00
